Jacksonville, FL

10:21 AM EDT on September 19, 2014 (GMT -0400)
RainmanWeather.com | Change Station
CLOSE
Current Station
Personal Weather Station
Location: Jacksonville, FL
Elevation: 20 ft
Nearby Weather Stations

Elev 20 ft 30.29 °N, 81.44 °W | Updated 9 seconds ago

Partly Cloudy
Partly Cloudy
84.4 °F
Feels Like 99 °F
N
6.0
Wind Variable Wind from North
Gusts 6.0 mph

Today
High -- | Low -- °F
--% Chance of Precip.
Yesterday
High -- | Low -- °F
Precip. -- in
7:12 AM 7:26 PM
Waning Crescent, 19% visible
Pressure 30.00 in
Visibility 10.0 miles
Clouds Clear
Heat Index 99 °F
Dew Point 80 °F
Humidity 88%
Rainfall 0.00 in
Snow Depth Not available.
UV 5 out of 12
Pollen 6.40 out of 12
Ozone Good
PM2.5 Good
Flu Activity Not available.
METAR KCRG 191353Z 02004KT 10SM CLR 27/24 A3000 RMK AO2 SLP158 T02670239

More Conditions Fewer Conditions

Pressure 30.00 in
Visibility 10.0 miles
Clouds Clear
Heat Index 99 °F
Dew Point 80 °F
Humidity 88%
Rainfall 0.00 in
Snow Depth Not available.
UV 5 out of 12
Pollen 6.40 out of 12
Ozone Good
PM2.5 Good
Flu Activity Not available.
METAR KCRG 191353Z 02004KT 10SM CLR 27/24 A3000 RMK AO2 SLP158 T02670239

More Conditions Fewer Conditions

10-Day Weather Forecast

Almanac

Astronomy

Sep. 19, 2014 Rise Set
Actual Time 7:12 AM EDT 7:26 PM EDT
Civil Twilight 6:48 AM EDT 7:50 PM EDT
Nautical Twilight 6:20 AM EDT 8:18 PM EDT
Astronomical Twilight 5:52 AM EDT 8:46 PM EDT
Moon 3:10 AM EDT 4:41 PM EDT
Length of Visible Light 13h 01m
Length of Day
12h 13m
Tomorrow will be 1m 49s shorter.
Waning Crescent, 19% of the Moon is Illuminated
Today
Waning Crescent
Sep 24
New
Oct 1
First Quarter
Oct 8
Full
Oct 15
Last Quarter

Today's Extremes

State Highs State Lows

Community

WunderPhotos

Upload Photos

1,754,624 photos uploaded!

WunderBlogs® & News

Nearby

Air Quality

  Air Quality AQ Index Pollutant
Yesterday Good
OZONE
Yesterday Good
PM2.5
Current Good
PM2.5
Current Good
OZONE
Friday Good
OZONE
Friday Good
PM2.5

Snow Depth

Station Depth Elevation
No new snow has been reported.

Earthquake Activity

City Distance Mag. Time & Date
No recent earthquake activity has been reported nearby.
Minimum magnitude displayed is 2.5.

Coastal Water Temperatures

Place Temperature
Mayport (Bar Pilots Dock), FL 84.0 °F
Fernandina Beach, FL 84.0 °F

Nearby Weather Stations